sensor_id;sensor_type;location;lat;lon;timestamp;pressure;altitude;pressure_sealevel;temperature;humidity
15489;BME280;7846;48.830;9.116;2023-02-28T00:00:47;98537.84;;;2.86;48.42
15489;BME280;7846;48.830;9.116;2023-02-28T00:03:13;98542.56;;;2.35;48.85
15489;BME280;7846;48.830;9.116;2023-02-28T00:05:38;98538.84;;;2.83;48.72
15489;BME280;7846;48.830;9.116;2023-02-28T00:08:04;98538.81;;;2.55;48.59
15489;BME280;7846;48.830;9.116;2023-02-28T00:10:30;98541.09;;;2.75;49.05
15489;BME280;7846;48.830;9.116;2023-02-28T00:13:03;98535.19;;;2.57;49.62
15489;BME280;7846;48.830;9.116;2023-02-28T00:15:29;98536.31;;;2.53;49.89
15489;BME280;7846;48.830;9.116;2023-02-28T00:17:54;98538.13;;;2.51;49.62
15489;BME280;7846;48.830;9.116;2023-02-28T00:20:20;98525.69;;;2.42;50.12
15489;BME280;7846;48.830;9.116;2023-02-28T00:22:48;98532.88;;;2.07;50.79
15489;BME280;7846;48.830;9.116;2023-02-28T00:25:20;98534.13;;;2.76;49.91
15489;BME280;7846;48.830;9.116;2023-02-28T00:27:46;98538.72;;;2.71;50.21
15489;BME280;7846;48.830;9.116;2023-02-28T00:30:17;98533.47;;;2.72;50.27
15489;BME280;7846;48.830;9.116;2023-02-28T00:32:42;98534.00;;;2.33;50.81
15489;BME280;7846;48.830;9.116;2023-02-28T00:35:09;98527.22;;;2.60;50.77
15489;BME280;7846;48.830;9.116;2023-02-28T00:37:35;98533.34;;;2.74;49.91
15489;BME280;7846;48.830;9.116;2023-02-28T00:40:01;98533.47;;;2.86;50.07
15489;BME280;7846;48.830;9.116;2023-02-28T00:42:29;98543.06;;;2.41;50.59
15489;BME280;7846;48.830;9.116;2023-02-28T00:44:55;98532.53;;;2.73;50.65
15489;BME280;7846;48.830;9.116;2023-02-28T00:47:20;98532.72;;;2.40;51.24
15489;BME280;7846;48.830;9.116;2023-02-28T00:49:46;98529.34;;;2.54;51.42
15489;BME280;7846;48.830;9.116;2023-02-28T00:52:13;98527.69;;;2.53;51.06
15489;BME280;7846;48.830;9.116;2023-02-28T00:54:39;98531.53;;;2.76;51.19
15489;BME280;7846;48.830;9.116;2023-02-28T00:57:05;98526.63;;;2.55;51.32
15489;BME280;7846;48.830;9.116;2023-02-28T00:59:31;98524.09;;;2.09;52.47
15489;BME280;7846;48.830;9.116;2023-02-28T01:01:58;98535.09;;;2.59;51.72
15489;BME280;7846;48.830;9.116;2023-02-28T01:04:23;98538.28;;;2.64;51.38
15489;BME280;7846;48.830;9.116;2023-02-28T01:06:49;98527.31;;;2.29;52.32
15489;BME280;7846;48.830;9.116;2023-02-28T01:09:16;98526.09;;;2.50;52.58
15489;BME280;7846;48.830;9.116;2023-02-28T01:11:43;98528.53;;;2.07;53.32
15489;BME280;7846;48.830;9.116;2023-02-28T01:14:12;98528.84;;;2.47;53.43
15489;BME280;7846;48.830;9.116;2023-02-28T01:16:38;98524.25;;;2.52;52.78
15489;BME280;7846;48.830;9.116;2023-02-28T01:19:04;98526.25;;;2.47;51.93
15489;BME280;7846;48.830;9.116;2023-02-28T01:21:30;98518.00;;;2.55;52.80
15489;BME280;7846;48.830;9.116;2023-02-28T01:23:57;98518.22;;;2.66;53.05
15489;BME280;7846;48.830;9.116;2023-02-28T01:26:22;98521.72;;;2.51;52.97
15489;BME280;7846;48.830;9.116;2023-02-28T01:28:49;98516.69;;;2.48;53.21
15489;BME280;7846;48.830;9.116;2023-02-28T01:31:15;98513.66;;;2.55;52.91
15489;BME280;7846;48.830;9.116;2023-02-28T01:33:41;98516.44;;;2.22;53.81
15489;BME280;7846;48.830;9.116;2023-02-28T01:36:11;98526.78;;;2.68;53.47
15489;BME280;7846;48.830;9.116;2023-02-28T01:38:37;98520.44;;;2.58;53.40
15489;BME280;7846;48.830;9.116;2023-02-28T01:41:05;98521.84;;;2.33;53.99
15489;BME280;7846;48.830;9.116;2023-02-28T01:46:13;98517.28;;;2.53;54.30
15489;BME280;7846;48.830;9.116;2023-02-28T01:48:47;98517.84;;;2.58;54.27
15489;BME280;7846;48.830;9.116;2023-02-28T01:51:21;98521.75;;;2.65;54.27
15489;BME280;7846;48.830;9.116;2023-02-28T01:53:59;98524.66;;;3.03;53.10
15489;BME280;7846;48.830;9.116;2023-02-28T01:56:30;98522.19;;;2.57;54.00
15489;BME280;7846;48.830;9.116;2023-02-28T01:58:58;98520.66;;;2.39;53.79
15489;BME280;7846;48.830;9.116;2023-02-28T02:01:25;98523.22;;;2.55;54.06
15489;BME280;7846;48.830;9.116;2023-02-28T02:03:55;98515.25;;;2.72;53.98
15489;BME280;7846;48.830;9.116;2023-02-28T02:06:43;98515.06;;;2.61;54.62
15489;BME280;7846;48.830;9.116;2023-02-28T02:09:10;98512.16;;;2.51;55.01
15489;BME280;7846;48.830;9.116;2023-02-28T02:11:36;98508.72;;;2.51;54.47
15489;BME280;7846;48.830;9.116;2023-02-28T02:16:48;98501.06;;;2.63;54.06
15489;BME280;7846;48.830;9.116;2023-02-28T02:25:39;98496.47;;;2.38;54.89
15489;BME280;7846;48.830;9.116;2023-02-28T02:31:24;98488.91;;;2.20;55.61
15489;BME280;7846;48.830;9.116;2023-02-28T02:34:20;98480.88;;;2.38;55.41
15489;BME280;7846;48.830;9.116;2023-02-28T02:36:57;98486.47;;;2.61;55.19
15489;BME280;7846;48.830;9.116;2023-02-28T02:39:44;98484.53;;;2.64;54.73
15489;BME280;7846;48.830;9.116;2023-02-28T02:42:16;98485.66;;;2.60;54.89
15489;BME280;7846;48.830;9.116;2023-02-28T02:44:48;98487.63;;;2.27;55.66
15489;BME280;7846;48.830;9.116;2023-02-28T02:47:18;98488.72;;;2.23;56.08
15489;BME280;7846;48.830;9.116;2023-02-28T02:49:49;98491.13;;;2.70;55.58
15489;BME280;7846;48.830;9.116;2023-02-28T02:52:18;98491.03;;;2.72;55.25
15489;BME280;7846;48.830;9.116;2023-02-28T02:54:48;98484.66;;;2.03;56.48
15489;BME280;7846;48.830;9.116;2023-02-28T02:57:24;98478.75;;;2.15;57.04
15489;BME280;7846;48.830;9.116;2023-02-28T02:59:55;98484.16;;;2.71;55.88
15489;BME280;7846;48.830;9.116;2023-02-28T03:02:21;98490.72;;;2.48;55.85
15489;BME280;7846;48.830;9.116;2023-02-28T03:04:58;98488.81;;;2.65;56.28
15489;BME280;7846;48.830;9.116;2023-02-28T03:07:28;98488.63;;;2.69;55.21
15489;BME280;7846;48.830;9.116;2023-02-28T03:09:55;98493.00;;;2.82;55.46
15489;BME280;7846;48.830;9.116;2023-02-28T03:12:23;98490.00;;;2.88;55.63
15489;BME280;7846;48.830;9.116;2023-02-28T03:15:08;98495.28;;;2.58;56.63
15489;BME280;7846;48.830;9.116;2023-02-28T03:18:04;98491.41;;;2.94;56.00
15489;BME280;7846;48.830;9.116;2023-02-28T03:20:59;98495.50;;;2.84;55.81
15489;BME280;7846;48.830;9.116;2023-02-28T03:23:38;98495.69;;;3.09;55.45
15489;BME280;7846;48.830;9.116;2023-02-28T03:26:16;98502.16;;;2.59;56.81
15489;BME280;7846;48.830;9.116;2023-02-28T03:31:21;98494.97;;;2.93;55.72
15489;BME280;7846;48.830;9.116;2023-02-28T03:33:53;98493.84;;;2.97;56.41
15489;BME280;7846;48.830;9.116;2023-02-28T03:36:33;98489.00;;;2.77;56.23
15489;BME280;7846;48.830;9.116;2023-02-28T03:39:07;98489.84;;;2.91;56.23
15489;BME280;7846;48.830;9.116;2023-02-28T03:41:43;98490.94;;;3.16;55.48
15489;BME280;7846;48.830;9.116;2023-02-28T03:44:21;98481.28;;;3.04;56.23
15489;BME280;7846;48.830;9.116;2023-02-28T03:47:24;98479.97;;;3.25;55.59
15489;BME280;7846;48.830;9.116;2023-02-28T03:50:02;98485.66;;;3.03;56.04
15489;BME280;7846;48.830;9.116;2023-02-28T03:52:34;98482.22;;;2.88;56.43
15489;BME280;7846;48.830;9.116;2023-02-28T03:55:03;98482.22;;;3.17;55.74
15489;BME280;7846;48.830;9.116;2023-02-28T03:57:37;98485.22;;;2.97;56.12
15489;BME280;7846;48.830;9.116;2023-02-28T04:00:24;98483.22;;;3.00;56.30
15489;BME280;7846;48.830;9.116;2023-02-28T04:02:53;98484.56;;;2.93;55.46
15489;BME280;7846;48.830;9.116;2023-02-28T04:05:20;98486.94;;;3.25;55.81
15489;BME280;7846;48.830;9.116;2023-02-28T04:07:46;98480.00;;;2.97;55.55
15489;BME280;7846;48.830;9.116;2023-02-28T04:10:11;98490.47;;;3.24;55.41
15489;BME280;7846;48.830;9.116;2023-02-28T04:12:37;98498.19;;;3.25;55.25
15489;BME280;7846;48.830;9.116;2023-02-28T04:15:04;98497.16;;;2.99;55.75
15489;BME280;7846;48.830;9.116;2023-02-28T04:17:30;98496.63;;;3.23;55.67
15489;BME280;7846;48.830;9.116;2023-02-28T04:19:55;98491.81;;;3.58;54.95
15489;BME280;7846;48.830;9.116;2023-02-28T04:22:22;98485.34;;;3.36;55.18
15489;BME280;7846;48.830;9.116;2023-02-28T04:24:50;98496.50;;;3.38;55.13
15489;BME280;7846;48.830;9.116;2023-02-28T04:27:17;98500.41;;;3.17;55.06
15489;BME280;7846;48.830;9.116;2023-02-28T04:29:43;98497.63;;;3.06;55.10
15489;BME280;7846;48.830;9.116;2023-02-28T04:32:10;98498.75;;;3.02;56.27
15489;BME280;7846;48.830;9.116;2023-02-28T04:34:35;98504.31;;;3.10;56.65
15489;BME280;7846;48.830;9.116;2023-02-28T04:37:01;98497.84;;;3.58;55.13
15489;BME280;7846;48.830;9.116;2023-02-28T04:39:28;98484.81;;;2.88;55.67
15489;BME280;7846;48.830;9.116;2023-02-28T04:41:53;98488.63;;;2.69;56.69
15489;BME280;7846;48.830;9.116;2023-02-28T04:44:19;98483.97;;;2.88;56.13
15489;BME280;7846;48.830;9.116;2023-02-28T04:46:47;98491.38;;;2.51;57.44
15489;BME280;7846;48.830;9.116;2023-02-28T04:49:13;98491.75;;;2.59;57.25
15489;BME280;7846;48.830;9.116;2023-02-28T04:51:39;98488.34;;;3.02;56.26
15489;BME280;7846;48.830;9.116;2023-02-28T04:54:04;98491.28;;;3.38;55.54
15489;BME280;7846;48.830;9.116;2023-02-28T04:56:30;98482.22;;;3.58;55.21
15489;BME280;7846;48.830;9.116;2023-02-28T04:58:55;98489.25;;;3.98;53.94
15489;BME280;7846;48.830;9.116;2023-02-28T05:01:26;98495.88;;;3.62;54.63
15489;BME280;7846;48.830;9.116;2023-02-28T05:03:54;98494.78;;;3.52;55.45
15489;BME280;7846;48.830;9.116;2023-02-28T05:06:23;98497.69;;;3.47;55.62
15489;BME280;7846;48.830;9.116;2023-02-28T05:08:49;98492.06;;;3.68;54.62
15489;BME280;7846;48.830;9.116;2023-02-28T05:11:18;98496.75;;;3.48;55.76
15489;BME280;7846;48.830;9.116;2023-02-28T05:13:44;98500.06;;;3.23;55.47
15489;BME280;7846;48.830;9.116;2023-02-28T05:16:10;98492.78;;;3.14;56.08
15489;BME280;7846;48.830;9.116;2023-02-28T05:18:36;98493.38;;;3.19;56.10
15489;BME280;7846;48.830;9.116;2023-02-28T05:21:01;98497.53;;;3.22;55.48
15489;BME280;7846;48.830;9.116;2023-02-28T05:23:27;98495.00;;;3.49;55.71
15489;BME280;7846;48.830;9.116;2023-02-28T05:25:52;98493.78;;;3.40;55.43
15489;BME280;7846;48.830;9.116;2023-02-28T05:28:18;98504.50;;;3.07;55.73
15489;BME280;7846;48.830;9.116;2023-02-28T05:30:44;98499.16;;;3.51;55.08
15489;BME280;7846;48.830;9.116;2023-02-28T05:33:11;98504.63;;;3.61;54.96
15489;BME280;7846;48.830;9.116;2023-02-28T05:35:38;98507.41;;;3.58;55.42
15489;BME280;7846;48.830;9.116;2023-02-28T05:38:04;98493.75;;;3.54;55.24
15489;BME280;7846;48.830;9.116;2023-02-28T05:40:29;98494.09;;;3.35;55.67
15489;BME280;7846;48.830;9.116;2023-02-28T05:42:55;98500.16;;;3.63;55.24
15489;BME280;7846;48.830;9.116;2023-02-28T05:45:21;98503.75;;;3.75;54.66
15489;BME280;7846;48.830;9.116;2023-02-28T05:47:47;98504.28;;;3.80;54.55
15489;BME280;7846;48.830;9.116;2023-02-28T05:50:14;98505.81;;;3.14;55.39
15489;BME280;7846;48.830;9.116;2023-02-28T05:52:39;98503.22;;;3.55;55.14
15489;BME280;7846;48.830;9.116;2023-02-28T05:55:06;98513.44;;;3.73;54.82
15489;BME280;7846;48.830;9.116;2023-02-28T05:57:31;98514.59;;;3.40;54.59
15489;BME280;7846;48.830;9.116;2023-02-28T05:59:57;98508.34;;;3.57;54.85
15489;BME280;7846;48.830;9.116;2023-02-28T06:02:22;98504.94;;;3.83;54.57
15489;BME280;7846;48.830;9.116;2023-02-28T06:04:49;98505.84;;;3.41;55.43
15489;BME280;7846;48.830;9.116;2023-02-28T06:07:14;98512.91;;;3.95;54.15
15489;BME280;7846;48.830;9.116;2023-02-28T06:09:40;98512.56;;;3.86;54.36
15489;BME280;7846;48.830;9.116;2023-02-28T06:12:08;98512.47;;;3.47;54.97
15489;BME280;7846;48.830;9.116;2023-02-28T06:14:35;98519.50;;;3.59;54.87
15489;BME280;7846;48.830;9.116;2023-02-28T06:17:02;98517.34;;;3.66;54.93
15489;BME280;7846;48.830;9.116;2023-02-28T06:19:28;98521.84;;;3.49;55.07
15489;BME280;7846;48.830;9.116;2023-02-28T06:21:58;98517.84;;;3.85;54.38
15489;BME280;7846;48.830;9.116;2023-02-28T06:24:25;98513.88;;;3.24;55.25
15489;BME280;7846;48.830;9.116;2023-02-28T06:26:53;98518.59;;;3.46;55.25
15489;BME280;7846;48.830;9.116;2023-02-28T06:29:19;98517.47;;;3.91;54.44
15489;BME280;7846;48.830;9.116;2023-02-28T06:31:45;98527.19;;;3.75;54.97
15489;BME280;7846;48.830;9.116;2023-02-28T06:34:11;98533.13;;;3.77;55.00
15489;BME280;7846;48.830;9.116;2023-02-28T06:36:38;98524.63;;;3.87;54.39
15489;BME280;7846;48.830;9.116;2023-02-28T06:39:04;98528.63;;;3.93;54.35
15489;BME280;7846;48.830;9.116;2023-02-28T06:41:30;98526.63;;;3.97;53.78
15489;BME280;7846;48.830;9.116;2023-02-28T06:43:55;98533.75;;;3.80;54.34
15489;BME280;7846;48.830;9.116;2023-02-28T06:46:22;98541.91;;;3.61;54.63
15489;BME280;7846;48.830;9.116;2023-02-28T06:48:49;98541.31;;;3.71;53.89
15489;BME280;7846;48.830;9.116;2023-02-28T06:51:18;98547.75;;;3.65;55.08
15489;BME280;7846;48.830;9.116;2023-02-28T06:53:45;98547.81;;;3.78;54.79
15489;BME280;7846;48.830;9.116;2023-02-28T06:56:13;98541.34;;;3.98;53.85
15489;BME280;7846;48.830;9.116;2023-02-28T06:58:39;98535.94;;;4.01;54.07
15489;BME280;7846;48.830;9.116;2023-02-28T07:01:06;98543.84;;;3.99;54.34
15489;BME280;7846;48.830;9.116;2023-02-28T07:03:31;98542.53;;;4.06;53.82
15489;BME280;7846;48.830;9.116;2023-02-28T07:05:58;98541.84;;;3.49;54.29
15489;BME280;7846;48.830;9.116;2023-02-28T07:08:24;98541.31;;;4.12;53.68
15489;BME280;7846;48.830;9.116;2023-02-28T07:10:54;98544.88;;;3.97;53.03
15489;BME280;7846;48.830;9.116;2023-02-28T07:13:19;98554.13;;;3.74;54.78
15489;BME280;7846;48.830;9.116;2023-02-28T07:15:55;98552.97;;;3.51;54.52
15489;BME280;7846;48.830;9.116;2023-02-28T07:18:21;98553.84;;;4.20;52.67
15489;BME280;7846;48.830;9.116;2023-02-28T07:20:46;98550.59;;;4.16;53.45
15489;BME280;7846;48.830;9.116;2023-02-28T07:23:13;98551.34;;;3.77;53.55
15489;BME280;7846;48.830;9.116;2023-02-28T07:25:38;98554.16;;;3.59;53.72
15489;BME280;7846;48.830;9.116;2023-02-28T07:28:04;98552.84;;;4.35;53.30
15489;BME280;7846;48.830;9.116;2023-02-28T07:30:30;98554.03;;;4.17;52.84
15489;BME280;7846;48.830;9.116;2023-02-28T07:32:55;98558.56;;;4.40;52.54
15489;BME280;7846;48.830;9.116;2023-02-28T07:35:21;98548.75;;;4.31;53.08
15489;BME280;7846;48.830;9.116;2023-02-28T07:37:48;98548.38;;;4.10;53.05
15489;BME280;7846;48.830;9.116;2023-02-28T07:40:14;98557.00;;;3.83;54.14
15489;BME280;7846;48.830;9.116;2023-02-28T07:42:40;98564.19;;;3.80;54.08
15489;BME280;7846;48.830;9.116;2023-02-28T07:45:07;98559.81;;;4.34;52.63
15489;BME280;7846;48.830;9.116;2023-02-28T07:47:34;98563.84;;;4.26;52.14
15489;BME280;7846;48.830;9.116;2023-02-28T07:50:00;98553.72;;;4.61;52.09
15489;BME280;7846;48.830;9.116;2023-02-28T07:52:27;98557.31;;;3.79;53.54
15489;BME280;7846;48.830;9.116;2023-02-28T07:54:52;98561.31;;;4.51;52.63
15489;BME280;7846;48.830;9.116;2023-02-28T07:57:18;98564.63;;;4.41;52.24
15489;BME280;7846;48.830;9.116;2023-02-28T07:59:43;98564.25;;;4.20;52.27
15489;BME280;7846;48.830;9.116;2023-02-28T08:02:13;98566.72;;;5.01;51.62
15489;BME280;7846;48.830;9.116;2023-02-28T08:04:39;98570.66;;;4.41;51.67
15489;BME280;7846;48.830;9.116;2023-02-28T08:07:05;98562.91;;;4.67;52.09
15489;BME280;7846;48.830;9.116;2023-02-28T08:09:33;98570.84;;;4.65;51.54
15489;BME280;7846;48.830;9.116;2023-02-28T08:11:59;98571.91;;;4.88;51.59
15489;BME280;7846;48.830;9.116;2023-02-28T08:14:25;98572.28;;;4.56;51.70
15489;BME280;7846;48.830;9.116;2023-02-28T08:16:51;98575.53;;;3.79;52.88
15489;BME280;7846;48.830;9.116;2023-02-28T08:19:16;98570.91;;;4.51;52.52
15489;BME280;7846;48.830;9.116;2023-02-28T08:21:41;98574.59;;;4.74;52.01
15489;BME280;7846;48.830;9.116;2023-02-28T08:24:08;98568.75;;;4.70;51.32
15489;BME280;7846;48.830;9.116;2023-02-28T08:26:33;98576.22;;;4.49;51.62
15489;BME280;7846;48.830;9.116;2023-02-28T08:28:58;98577.91;;;4.50;51.17
15489;BME280;7846;48.830;9.116;2023-02-28T08:31:26;98570.63;;;4.68;52.13
15489;BME280;7846;48.830;9.116;2023-02-28T08:33:51;98580.09;;;4.29;53.01
15489;BME280;7846;48.830;9.116;2023-02-28T08:36:19;98580.03;;;4.96;51.62
15489;BME280;7846;48.830;9.116;2023-02-28T08:38:45;98581.50;;;4.88;51.60
15489;BME280;7846;48.830;9.116;2023-02-28T08:41:12;98580.06;;;5.34;50.35
15489;BME280;7846;48.830;9.116;2023-02-28T08:43:37;98585.91;;;5.38;50.25
15489;BME280;7846;48.830;9.116;2023-02-28T08:46:04;98586.34;;;5.19;51.05
15489;BME280;7846;48.830;9.116;2023-02-28T08:48:31;98586.44;;;5.30;50.89
15489;BME280;7846;48.830;9.116;2023-02-28T08:51:03;98584.97;;;5.14;51.04
15489;BME280;7846;48.830;9.116;2023-02-28T08:53:29;98582.34;;;4.88;51.08
15489;BME280;7846;48.830;9.116;2023-02-28T08:55:58;98583.84;;;5.30;50.67
15489;BME280;7846;48.830;9.116;2023-02-28T08:58:24;98591.44;;;5.33;50.89
15489;BME280;7846;48.830;9.116;2023-02-28T09:00:51;98586.88;;;5.74;49.43
15489;BME280;7846;48.830;9.116;2023-02-28T09:03:16;98593.53;;;6.03;48.74
15489;BME280;7846;48.830;9.116;2023-02-28T09:05:55;98598.22;;;6.35;48.79
15489;BME280;7846;48.830;9.116;2023-02-28T09:08:20;98598.72;;;6.16;48.93
15489;BME280;7846;48.830;9.116;2023-02-28T09:10:46;98594.94;;;5.71;49.89
15489;BME280;7846;48.830;9.116;2023-02-28T09:13:11;98587.31;;;6.41;48.54
15489;BME280;7846;48.830;9.116;2023-02-28T09:15:37;98592.09;;;5.99;48.93
15489;BME280;7846;48.830;9.116;2023-02-28T09:18:03;98600.72;;;6.13;47.87
15489;BME280;7846;48.830;9.116;2023-02-28T09:20:28;98595.31;;;6.51;47.46
15489;BME280;7846;48.830;9.116;2023-02-28T09:22:54;98595.56;;;5.74;49.73
15489;BME280;7846;48.830;9.116;2023-02-28T09:25:19;98600.19;;;5.58;49.50
15489;BME280;7846;48.830;9.116;2023-02-28T09:27:45;98598.31;;;6.10;48.60
15489;BME280;7846;48.830;9.116;2023-02-28T09:30:11;98595.97;;;5.94;49.13
15489;BME280;7846;48.830;9.116;2023-02-28T09:32:36;98604.97;;;5.77;48.32
15489;BME280;7846;48.830;9.116;2023-02-28T09:35:02;98600.88;;;5.98;49.10
15489;BME280;7846;48.830;9.116;2023-02-28T09:37:27;98597.31;;;6.47;47.73
15489;BME280;7846;48.830;9.116;2023-02-28T09:39:54;98602.16;;;6.65;47.36
15489;BME280;7846;48.830;9.116;2023-02-28T09:42:24;98595.31;;;6.75;47.75
15489;BME280;7846;48.830;9.116;2023-02-28T09:44:53;98604.94;;;6.86;47.60
15489;BME280;7846;48.830;9.116;2023-02-28T09:47:29;98601.25;;;7.12;46.36
15489;BME280;7846;48.830;9.116;2023-02-28T09:49:59;98601.44;;;6.98;46.38
15489;BME280;7846;48.830;9.116;2023-02-28T09:52:30;98603.94;;;6.99;46.14
15489;BME280;7846;48.830;9.116;2023-02-28T09:55:09;98604.97;;;7.55;45.44
15489;BME280;7846;48.830;9.116;2023-02-28T09:57:40;98610.72;;;7.02;45.13
15489;BME280;7846;48.830;9.116;2023-02-28T10:00:22;98605.38;;;7.15;45.54
15489;BME280;7846;48.830;9.116;2023-02-28T10:02:58;98616.09;;;7.12;44.90
15489;BME280;7846;48.830;9.116;2023-02-28T10:05:44;98606.66;;;6.98;44.84
15489;BME280;7846;48.830;9.116;2023-02-28T10:08:19;98616.47;;;7.18;44.62
15489;BME280;7846;48.830;9.116;2023-02-28T10:10:53;98613.53;;;7.34;44.62
15489;BME280;7846;48.830;9.116;2023-02-28T10:13:34;98606.31;;;7.02;44.68
15489;BME280;7846;48.830;9.116;2023-02-28T10:16:05;98612.44;;;7.37;44.81
15489;BME280;7846;48.830;9.116;2023-02-28T10:18:47;98614.59;;;7.54;44.37
15489;BME280;7846;48.830;9.116;2023-02-28T10:21:17;98613.88;;;7.41;44.60
15489;BME280;7846;48.830;9.116;2023-02-28T10:23:45;98620.66;;;7.32;44.38
15489;BME280;7846;48.830;9.116;2023-02-28T10:26:14;98626.34;;;7.26;44.51
15489;BME280;7846;48.830;9.116;2023-02-28T10:28:44;98619.94;;;7.41;44.94
15489;BME280;7846;48.830;9.116;2023-02-28T10:31:15;98634.16;;;7.72;43.83
15489;BME280;7846;48.830;9.116;2023-02-28T10:33:42;98630.94;;;7.58;43.11
15489;BME280;7846;48.830;9.116;2023-02-28T10:36:10;98630.19;;;7.89;43.60
15489;BME280;7846;48.830;9.116;2023-02-28T10:38:39;98625.00;;;8.33;43.46
15489;BME280;7846;48.830;9.116;2023-02-28T10:41:11;98627.53;;;8.45;42.78
15489;BME280;7846;48.830;9.116;2023-02-28T10:43:39;98620.88;;;9.15;42.09
15489;BME280;7846;48.830;9.116;2023-02-28T10:48:42;98620.00;;;9.05;42.17
15489;BME280;7846;48.830;9.116;2023-02-28T10:51:14;98619.34;;;9.13;42.18
15489;BME280;7846;48.830;9.116;2023-02-28T10:53:47;98622.59;;;8.84;42.29
15489;BME280;7846;48.830;9.116;2023-02-28T10:56:23;98631.63;;;9.33;41.58
15489;BME280;7846;48.830;9.116;2023-02-28T11:01:26;98618.72;;;9.72;40.39
15489;BME280;7846;48.830;9.116;2023-02-28T11:04:00;98614.63;;;9.37;41.30
15489;BME280;7846;48.830;9.116;2023-02-28T11:06:30;98623.97;;;9.82;41.25
15489;BME280;7846;48.830;9.116;2023-02-28T11:08:59;98614.97;;;9.75;40.77
15489;BME280;7846;48.830;9.116;2023-02-28T11:11:28;98614.78;;;9.66;40.55
15489;BME280;7846;48.830;9.116;2023-02-28T11:14:03;98615.09;;;9.42;40.46
15489;BME280;7846;48.830;9.116;2023-02-28T11:16:34;98608.72;;;9.66;40.57
15489;BME280;7846;48.830;9.116;2023-02-28T11:19:03;98614.06;;;9.55;40.72
15489;BME280;7846;48.830;9.116;2023-02-28T11:21:36;98606.03;;;9.56;40.56
15489;BME280;7846;48.830;9.116;2023-02-28T11:24:27;98600.94;;;9.34;40.58
15489;BME280;7846;48.830;9.116;2023-02-28T11:26:54;98595.09;;;8.67;40.90
15489;BME280;7846;48.830;9.116;2023-02-28T11:29:26;98598.91;;;8.95;41.88
15489;BME280;7846;48.830;9.116;2023-02-28T11:32:13;98602.97;;;8.67;42.82
15489;BME280;7846;48.830;9.116;2023-02-28T11:34:43;98599.88;;;8.94;42.04
15489;BME280;7846;48.830;9.116;2023-02-28T11:37:18;98604.28;;;9.36;41.77
15489;BME280;7846;48.830;9.116;2023-02-28T11:39:45;98601.81;;;9.75;40.89
15489;BME280;7846;48.830;9.116;2023-02-28T11:42:36;98595.03;;;9.41;40.35
15489;BME280;7846;48.830;9.116;2023-02-28T11:45:37;98593.84;;;9.04;41.58
15489;BME280;7846;48.830;9.116;2023-02-28T11:51:22;98578.81;;;9.98;40.58
15489;BME280;7846;48.830;9.116;2023-02-28T11:54:09;98583.69;;;9.72;40.65
15489;BME280;7846;48.830;9.116;2023-02-28T11:56:53;98581.81;;;10.62;39.16
15489;BME280;7846;48.830;9.116;2023-02-28T11:59:29;98581.44;;;9.67;40.29
15489;BME280;7846;48.830;9.116;2023-02-28T12:02:16;98578.84;;;10.17;39.87
15489;BME280;7846;48.830;9.116;2023-02-28T12:11:13;98571.56;;;10.69;38.81
15489;BME280;7846;48.830;9.116;2023-02-28T12:13:50;98576.28;;;10.65;38.97
15489;BME280;7846;48.830;9.116;2023-02-28T12:16:37;98570.81;;;11.06;38.90
15489;BME280;7846;48.830;9.116;2023-02-28T12:19:16;98575.38;;;9.66;39.71
15489;BME280;7846;48.830;9.116;2023-02-28T12:22:12;98564.78;;;9.97;39.94
15489;BME280;7846;48.830;9.116;2023-02-28T12:27:36;98564.16;;;10.24;39.80
15489;BME280;7846;48.830;9.116;2023-02-28T12:30:32;98559.75;;;10.93;38.86
15489;BME280;7846;48.830;9.116;2023-02-28T12:33:08;98560.13;;;11.07;38.18
15489;BME280;7846;48.830;9.116;2023-02-28T12:35:53;98555.59;;;11.37;37.44
15489;BME280;7846;48.830;9.116;2023-02-28T12:41:12;98556.00;;;10.95;38.00
15489;BME280;7846;48.830;9.116;2023-02-28T12:43:46;98553.03;;;11.27;37.72
15489;BME280;7846;48.830;9.116;2023-02-28T12:46:18;98554.84;;;11.82;37.57
15489;BME280;7846;48.830;9.116;2023-02-28T12:48:48;98546.94;;;11.92;37.47
15489;BME280;7846;48.830;9.116;2023-02-28T12:51:16;98538.06;;;11.08;37.58
15489;BME280;7846;48.830;9.116;2023-02-28T12:54:07;98542.19;;;11.95;36.65
15489;BME280;7846;48.830;9.116;2023-02-28T12:56:44;98541.84;;;12.44;35.51
15489;BME280;7846;48.830;9.116;2023-02-28T12:59:18;98534.81;;;12.70;35.51
15489;BME280;7846;48.830;9.116;2023-02-28T13:02:01;98538.84;;;13.52;34.69
15489;BME280;7846;48.830;9.116;2023-02-28T13:10:12;98533.34;;;14.88;32.83
15489;BME280;7846;48.830;9.116;2023-02-28T13:12:50;98533.34;;;14.88;32.46
15489;BME280;7846;48.830;9.116;2023-02-28T13:15:22;98533.00;;;15.07;32.25
15489;BME280;7846;48.830;9.116;2023-02-28T13:17:54;98527.31;;;15.82;31.20
15489;BME280;7846;48.830;9.116;2023-02-28T13:20:27;98531.28;;;16.17;31.02
15489;BME280;7846;48.830;9.116;2023-02-28T13:22:55;98540.50;;;15.67;31.73
15489;BME280;7846;48.830;9.116;2023-02-28T13:27:49;98536.16;;;17.21;29.97
15489;BME280;7846;48.830;9.116;2023-02-28T13:33:23;98530.81;;;16.83;29.39
15489;BME280;7846;48.830;9.116;2023-02-28T13:36:07;98527.16;;;16.38;30.25
15489;BME280;7846;48.830;9.116;2023-02-28T13:38:38;98539.41;;;16.24;31.45
15489;BME280;7846;48.830;9.116;2023-02-28T13:46:30;98522.00;;;17.20;29.25
15489;BME280;7846;48.830;9.116;2023-02-28T13:49:23;98532.97;;;16.87;29.60
15489;BME280;7846;48.830;9.116;2023-02-28T13:51:53;98531.19;;;15.63;30.03
15489;BME280;7846;48.830;9.116;2023-02-28T14:03:07;98524.94;;;14.01;31.95
15489;BME280;7846;48.830;9.116;2023-02-28T14:05:36;98532.53;;;13.79;33.05
15489;BME280;7846;48.830;9.116;2023-02-28T14:08:10;98526.22;;;14.96;32.01
15489;BME280;7846;48.830;9.116;2023-02-28T14:10:44;98524.38;;;15.77;30.67
15489;BME280;7846;48.830;9.116;2023-02-28T14:15:59;98524.13;;;17.10;29.17
15489;BME280;7846;48.830;9.116;2023-02-28T14:18:31;98529.81;;;16.15;29.82
15489;BME280;7846;48.830;9.116;2023-02-28T14:21:02;98523.94;;;17.41;28.92
15489;BME280;7846;48.830;9.116;2023-02-28T14:23:49;98516.97;;;17.84;28.46
15489;BME280;7846;48.830;9.116;2023-02-28T14:32:28;98520.78;;;17.97;28.26
15489;BME280;7846;48.830;9.116;2023-02-28T14:37:30;98519.00;;;18.83;28.00
15489;BME280;7846;48.830;9.116;2023-02-28T14:39:59;98529.06;;;16.75;29.98
15489;BME280;7846;48.830;9.116;2023-02-28T14:42:36;98520.00;;;16.38;30.18
15489;BME280;7846;48.830;9.116;2023-02-28T14:45:03;98511.13;;;15.13;30.63
15489;BME280;7846;48.830;9.116;2023-02-28T14:47:33;98518.13;;;17.08;29.90
15489;BME280;7846;48.830;9.116;2023-02-28T14:50:00;98528.56;;;16.72;30.58